Time;durP1;ratioP1;P1;durP2;ratioP2;P2;SDS_P1;SDS_P2;PMS_P1;PMS_P2;Temp;Humidity;BMP_temperature;BMP_pressure;BME280_temperature;BME280_humidity;BME280_pressure;Samples;Min_cycle;Max_cycle;Signal;HPM_P1;HPM_P2
2022/08/13 00:01:24;;;;;;;9.48;5.18;;;18.80;99.90;;;;;;5001567;28;89980;-33
2022/08/13 00:03:55;;;;;;;6.25;5.75;;;18.70;99.90;;;;;;5001359;28;90529;-32
2022/08/13 00:07:08;;;;;;;9.60;5.78;;;18.70;99.90;;;;;;5001035;28;89024;-32
2022/08/13 00:09:10;;;;;;;6.32;4.85;;;18.70;99.90;;;;;;4977539;28;91520;-30
2022/08/13 00:14:36;;;;;;;8.30;5.83;;;18.60;99.90;;;;;;4960647;28;89571;-35
2022/08/13 00:17:04;;;;;;;6.35;5.78;;;18.50;99.90;;;;;;4993948;28;90182;-32
2022/08/13 00:19:30;;;;;;;6.05;5.50;;;18.50;99.90;;;;;;5000728;28;89338;-36
2022/08/13 00:21:58;;;;;;;6.82;6.22;;;18.50;99.90;;;;;;5035704;22;89784;-31
2022/08/13 00:24:24;;;;;;;6.75;6.20;;;18.40;99.90;;;;;;5001055;28;88386;-34
2022/08/13 00:26:50;;;;;;;7.25;6.43;;;18.40;99.90;;;;;;5000113;28;90764;-34
2022/08/13 00:29:16;;;;;;;9.70;6.05;;;18.40;99.90;;;;;;5000505;28;90699;-32
2022/08/13 00:31:43;;;;;;;6.95;6.25;;;18.30;99.90;;;;;;5000594;28;90429;-35
2022/08/13 00:34:09;;;;;;;6.20;5.70;;;18.30;99.90;;;;;;5001576;28;88358;-33
2022/08/13 00:36:35;;;;;;;6.63;5.97;;;18.30;99.90;;;;;;5000690;28;90622;-31
2022/08/13 00:39:06;;;;;;;6.30;5.40;;;18.30;99.90;;;;;;5000439;28;89004;-33
2022/08/13 00:41:37;;;;;;;7.50;6.53;;;18.20;99.90;;;;;;4999669;28;90056;-32
2022/08/13 00:44:08;;;;;;;6.30;5.80;;;18.20;99.90;;;;;;5001693;28;90310;-31
2022/08/13 00:46:34;;;;;;;6.35;5.75;;;18.20;99.90;;;;;;5001005;28;90109;-31
2022/08/13 00:49:03;;;;;;;5.70;5.30;;;18.20;99.90;;;;;;5001011;28;89806;-34
2022/08/13 00:51:31;;;;;;;9.50;7.13;;;18.20;99.90;;;;;;5000117;28;90893;-33
2022/08/13 00:53:58;;;;;;;8.38;7.57;;;18.20;99.90;;;;;;5000167;28;90234;-37
2022/08/13 00:56:24;;;;;;;7.15;6.45;;;18.10;99.90;;;;;;5000857;28;89674;-32
2022/08/13 00:58:51;;;;;;;7.95;7.25;;;18.10;99.90;;;;;;5000958;28;89467;-30
2022/08/13 01:01:25;;;;;;;9.00;7.63;;;18.10;99.90;;;;;;5000023;28;90141;-33
2022/08/13 01:03:51;;;;;;;7.90;7.03;;;18.10;99.90;;;;;;4997397;28;88092;-31
2022/08/13 01:06:21;;;;;;;7.93;7.20;;;18.00;99.90;;;;;;5000079;28;90151;-32
2022/08/13 01:08:52;;;;;;;7.50;6.78;;;18.00;99.90;;;;;;4996875;28;90097;-32
2022/08/13 01:11:19;;;;;;;6.68;6.18;;;17.90;99.90;;;;;;5000219;28;89327;-33
2022/08/13 01:13:46;;;;;;;7.85;6.00;;;17.90;99.90;;;;;;5001151;28;88390;-31
2022/08/13 01:16:13;;;;;;;8.73;7.15;;;17.80;99.90;;;;;;5000110;28;90100;-36
2022/08/13 01:18:45;;;;;;;7.78;6.45;;;17.80;99.90;;;;;;4999806;28;89561;-31
2022/08/13 01:21:15;;;;;;;7.70;6.85;;;17.70;99.90;;;;;;5000306;28;90305;-32
2022/08/13 01:23:45;;;;;;;8.68;7.38;;;17.70;99.90;;;;;;5000042;28;88530;-32
2022/08/13 01:26:13;;;;;;;8.02;7.32;;;17.70;99.90;;;;;;5000459;28;90319;-37
2022/08/13 01:28:40;;;;;;;8.05;7.32;;;17.70;99.90;;;;;;5000347;28;89240;-32
2022/08/13 01:31:06;;;;;;;8.90;8.10;;;17.60;99.90;;;;;;4999827;28;91041;-34
2022/08/13 01:33:35;;;;;;;10.45;7.78;;;17.60;99.90;;;;;;4999948;28;89520;-34
2022/08/13 01:36:06;;;;;;;10.13;8.07;;;17.60;99.90;;;;;;4999844;28;90093;-35
2022/08/13 01:38:34;;;;;;;8.20;7.50;;;17.50;99.90;;;;;;4999762;28;90126;-36
2022/08/13 01:41:02;;;;;;;11.02;7.32;;;17.50;99.90;;;;;;5000043;28;89634;-34
2022/08/13 01:43:30;;;;;;;13.27;7.80;;;17.50;99.90;;;;;;4999219;28;90272;-36
2022/08/13 01:46:01;;;;;;;8.95;7.63;;;17.50;99.90;;;;;;5000725;28;90294;-33
2022/08/13 01:51:23;;;;;;;8.68;7.88;;;17.50;99.90;;;;;;4987999;28;88574;-33
2022/08/13 01:53:52;;;;;;;7.82;6.95;;;17.40;99.90;;;;;;4999001;28;89315;-31
2022/08/13 01:56:21;;;;;;;8.93;8.05;;;17.40;99.90;;;;;;4999626;28;90152;-32
2022/08/13 01:58:52;;;;;;;7.82;6.80;;;17.40;99.90;;;;;;4998955;28;88676;-32
2022/08/13 02:01:18;;;;;;;8.45;7.55;;;17.40;99.90;;;;;;4999629;28;89473;-34
2022/08/13 02:03:49;;;;;;;10.95;8.32;;;17.30;99.90;;;;;;5000306;28;89534;-36
2022/08/13 02:06:20;;;;;;;9.75;8.07;;;17.30;99.90;;;;;;4999473;28;90165;-33
2022/08/13 02:08:50;;;;;;;9.50;8.70;;;17.30;99.90;;;;;;4999007;28;90542;-30
2022/08/13 02:11:16;;;;;;;12.65;7.63;;;17.20;99.90;;;;;;4998291;28;90315;-32
2022/08/13 02:13:42;;;;;;;8.27;7.45;;;17.10;99.90;;;;;;5000487;28;87934;-32
2022/08/13 02:16:08;;;;;;;8.63;7.80;;;17.10;99.90;;;;;;4999312;28;90578;-31
2022/08/13 02:18:34;;;;;;;12.20;7.88;;;17.00;99.90;;;;;;4999354;28;89453;-36
2022/08/13 02:21:04;;;;;;;7.90;7.20;;;17.00;99.90;;;;;;4999517;28;89460;-33
2022/08/13 02:23:33;;;;;;;8.95;7.30;;;17.00;99.90;;;;;;4998839;28;88442;-36
2022/08/13 02:26:00;;;;;;;8.50;7.70;;;17.00;99.90;;;;;;4999851;28;90356;-31
2022/08/13 02:28:30;;;;;;;8.27;7.57;;;16.90;99.90;;;;;;4998769;28;89774;-33
2022/08/13 02:30:57;;;;;;;8.55;7.72;;;16.90;99.90;;;;;;4999476;28;91102;-33
2022/08/13 02:33:24;;;;;;;8.02;7.32;;;16.90;99.90;;;;;;4998355;28;90415;-34
2022/08/13 02:35:50;;;;;;;8.23;7.40;;;16.90;99.90;;;;;;4998227;28;90184;-32
2022/08/13 02:38:17;;;;;;;8.23;7.03;;;16.80;99.90;;;;;;4998575;28;89235;-32
2022/08/13 02:43:29;;;;;;;7.90;7.20;;;16.80;99.90;;;;;;4999173;28;89208;-37
2022/08/13 02:45:56;;;;;;;8.80;7.25;;;16.80;99.90;;;;;;4999277;28;90495;-33
2022/08/13 02:48:25;;;;;;;8.15;7.35;;;16.80;99.90;;;;;;4998122;28;89605;-35
2022/08/13 02:50:52;;;;;;;12.65;7.70;;;16.70;99.90;;;;;;4998957;28;89714;-32
2022/08/13 02:53:19;;;;;;;9.57;8.70;;;16.70;99.90;;;;;;4999540;28;89319;-36
2022/08/13 02:55:49;;;;;;;8.98;8.18;;;16.70;99.90;;;;;;4999470;28;90236;-33
2022/08/13 02:58:16;;;;;;;7.68;6.88;;;16.70;99.90;;;;;;4998576;28;90463;-32
2022/08/13 03:00:47;;;;;;;9.18;8.27;;;16.80;99.90;;;;;;4998417;28;91782;-32
2022/08/13 03:03:13;;;;;;;7.78;6.97;;;16.70;99.90;;;;;;4999194;28;87541;-32
2022/08/13 03:05:38;;;;;;;11.30;8.88;;;16.70;99.90;;;;;;4999686;28;90580;-31
2022/08/13 03:08:05;;;;;;;8.32;7.68;;;16.60;99.90;;;;;;5002920;28;89810;-34
2022/08/13 03:10:30;;;;;;;8.85;8.00;;;16.60;99.90;;;;;;5001642;28;89528;-34
2022/08/13 03:13:04;;;;;;;10.52;7.30;;;16.50;99.90;;;;;;5002950;28;88909;-35
2022/08/13 03:15:31;;;;;;;10.77;8.27;;;16.40;99.90;;;;;;5002092;28;90081;-34
2022/08/13 03:17:57;;;;;;;9.70;8.57;;;16.30;99.90;;;;;;5002184;28;90021;-33
2022/08/13 03:20:22;;;;;;;9.65;8.85;;;16.30;99.90;;;;;;5002521;28;89393;-36
2022/08/13 03:23:00;;;;;;;9.57;8.55;;;16.20;99.90;;;;;;5000985;28;89312;-35
2022/08/13 03:25:28;;;;;;;8.88;8.07;;;16.20;99.90;;;;;;5001484;28;90155;-32
2022/08/13 03:27:54;;;;;;;10.55;9.45;;;16.10;99.90;;;;;;5001947;28;89625;-35
2022/08/13 03:30:22;;;;;;;11.88;9.55;;;16.00;99.90;;;;;;5002697;28;89509;-31
2022/08/13 03:32:51;;;;;;;10.52;9.30;;;16.00;99.90;;;;;;5002178;28;89037;-35
2022/08/13 03:35:22;;;;;;;9.70;8.70;;;16.00;99.90;;;;;;5001548;28;90086;-35
2022/08/13 03:37:54;;;;;;;10.70;9.38;;;16.00;99.90;;;;;;5000640;28;89650;-33
2022/08/13 03:40:22;;;;;;;11.07;9.02;;;16.00;99.90;;;;;;5001840;28;90494;-34
2022/08/13 03:42:51;;;;;;;12.93;9.88;;;16.00;99.90;;;;;;5002457;28;89259;-33
2022/08/13 03:45:19;;;;;;;8.73;7.90;;;16.00;99.90;;;;;;5001380;28;90156;-32
2022/08/13 03:47:45;;;;;;;8.65;7.88;;;16.00;99.90;;;;;;5000454;28;90346;-35
2022/08/13 03:50:13;;;;;;;10.48;9.45;;;15.90;99.90;;;;;;5001916;28;91250;-37
2022/08/13 03:52:39;;;;;;;;;;;15.90;99.90;;;;;;5002558;28;87976;-30
2022/08/13 03:55:09;;;;;;;10.40;9.52;;;15.80;99.90;;;;;;5003089;28;90358;-34
2022/08/13 03:57:40;;;;;;;15.52;10.13;;;15.80;99.90;;;;;;5000964;28;91829;-31
2022/08/13 04:00:07;;;;;;;10.88;9.85;;;15.80;99.90;;;;;;5000644;28;89724;-34
2022/08/13 04:02:33;;;;;;;10.52;9.45;;;15.70;99.90;;;;;;5001633;28;89212;-31
2022/08/13 04:04:59;;;;;;;14.27;12.82;;;15.70;99.90;;;;;;5001778;28;90142;-37
2022/08/13 04:07:27;;;;;;;12.90;11.60;;;15.70;99.90;;;;;;5000512;28;89707;-31
2022/08/13 04:09:54;;;;;;;11.35;10.32;;;15.70;99.90;;;;;;5000256;28;90557;-33
2022/08/13 04:12:19;;;;;;;11.68;10.10;;;15.70;99.90;;;;;;4999621;28;89278;-36
2022/08/13 04:14:45;;;;;;;10.57;9.60;;;15.70;99.90;;;;;;5001449;28;91189;-32
2022/08/13 04:17:11;;;;;;;12.43;10.13;;;15.70;99.90;;;;;;5000773;28;90261;-31
2022/08/13 04:19:40;;;;;;;24.92;10.98;;;15.70;99.90;;;;;;5000143;28;89495;-33
2022/08/13 04:22:13;;;;;;;10.02;9.18;;;15.70;99.90;;;;;;5000491;28;89646;-33
2022/08/13 04:24:40;;;;;;;16.90;10.85;;;15.70;99.90;;;;;;5000506;28;90182;-32
2022/08/13 04:27:05;;;;;;;11.10;10.00;;;15.70;99.90;;;;;;5000467;28;89793;-31
2022/08/13 04:29:31;;;;;;;12.98;10.18;;;15.70;99.90;;;;;;4999721;28;89351;-34
2022/08/13 04:31:59;;;;;;;10.65;9.75;;;15.60;99.90;;;;;;5000295;28;88386;-33
2022/08/13 04:34:28;;;;;;;14.30;12.77;;;15.70;99.90;;;;;;5000596;28;90330;-36
2022/08/13 04:36:54;;;;;;;12.00;10.90;;;15.70;99.90;;;;;;4999935;28;90433;-31
2022/08/13 04:39:20;;;;;;;12.60;10.02;;;15.80;99.90;;;;;;4999429;28;91038;-33
2022/08/13 04:41:46;;;;;;;11.60;10.32;;;16.00;99.90;;;;;;4999677;28;89411;-36
2022/08/13 04:44:12;;;;;;;13.55;10.98;;;16.20;99.90;;;;;;5000807;28;91441;-34
2022/08/13 04:46:38;;;;;;;10.90;9.77;;;16.20;99.90;;;;;;4999591;28;89888;-32
2022/08/13 04:49:07;;;;;;;14.10;11.32;;;16.20;99.90;;;;;;5001164;28;88954;-32
2022/08/13 04:51:36;;;;;;;12.65;8.88;;;16.20;99.90;;;;;;5000284;28;87695;-35
2022/08/13 04:54:02;;;;;;;13.15;11.48;;;16.20;99.90;;;;;;5001281;28;90566;-33
2022/08/13 04:56:28;;;;;;;11.50;10.40;;;16.20;99.90;;;;;;4999636;28;89390;-32
2022/08/13 04:58:53;;;;;;;13.55;9.95;;;16.20;99.90;;;;;;5000093;28;89583;-32
2022/08/13 05:01:21;;;;;;;10.43;9.30;;;16.20;99.90;;;;;;4999527;28;89358;-32
2022/08/13 05:03:47;;;;;;;10.27;9.27;;;16.30;99.90;;;;;;5000642;28;90034;-31
2022/08/13 05:06:19;;;;;;;10.43;9.30;;;16.40;99.90;;;;;;5000542;28;90371;-35
2022/08/13 05:08:51;;;;;;;11.38;10.35;;;16.60;99.90;;;;;;5000093;28;90888;-34
2022/08/13 05:11:19;;;;;;;11.00;9.55;;;16.80;99.90;;;;;;4999541;28;88912;-34
2022/08/13 05:13:46;;;;;;;10.88;9.98;;;17.10;99.90;;;;;;5000254;28;90011;-34
2022/08/13 05:16:16;;;;;;;10.32;9.23;;;17.20;99.90;;;;;;4998266;28;89636;-36
2022/08/13 05:18:45;;;;;;;10.57;9.48;;;17.30;99.90;;;;;;5000558;28;89555;-32
2022/08/13 05:21:11;;;;;;;12.50;9.77;;;17.40;99.90;;;;;;5000584;28;88140;-32
2022/08/13 05:23:39;;;;;;;14.20;10.25;;;17.60;99.90;;;;;;5000105;28;90434;-33
2022/08/13 05:26:05;;;;;;;9.83;8.97;;;17.60;99.90;;;;;;4998103;28;90595;-34
2022/08/13 05:28:31;;;;;;;10.98;9.77;;;17.70;99.90;;;;;;4999446;28;90005;-32
2022/08/13 05:30:58;;;;;;;10.38;9.40;;;17.80;99.90;;;;;;5001029;28;88034;-32
2022/08/13 05:33:26;;;;;;;11.20;10.00;;;17.90;99.90;;;;;;4998909;28;90412;-29
2022/08/13 05:35:55;;;;;;;10.70;9.60;;;18.00;99.90;;;;;;4998911;28;89753;-34
2022/08/13 05:38:22;;;;;;;10.10;9.10;;;18.00;99.90;;;;;;4999346;28;88685;-34
2022/08/13 05:40:49;;;;;;;11.48;10.23;;;18.10;99.90;;;;;;5000228;28;88722;-32
2022/08/13 05:43:19;;;;;;;10.43;9.43;;;18.30;99.90;;;;;;4999055;28;89804;-31
2022/08/13 05:45:59;;;;;;;9.35;8.63;;;18.30;99.90;;;;;;4999710;28;90058;-31
2022/08/13 05:48:30;;;;;;;10.65;9.30;;;18.40;99.90;;;;;;4999188;28;89757;-31
2022/08/13 05:51:01;;;;;;;9.40;8.55;;;18.60;99.90;;;;;;5000008;28;90147;-36
2022/08/13 05:53:28;;;;;;;8.85;8.13;;;18.70;99.90;;;;;;4999103;28;90064;-35
2022/08/13 05:55:54;;;;;;;10.30;9.40;;;18.80;99.90;;;;;;5000037;28;89646;-30
2022/08/13 05:58:21;;;;;;;9.23;7.43;;;18.90;99.90;;;;;;4999127;28;89118;-31
2022/08/13 06:03:33;;;;;;;14.55;7.55;;;19.00;99.90;;;;;;4999588;28;91088;-33
2022/08/13 06:06:01;;;;;;;8.70;7.93;;;19.10;99.90;;;;;;5001672;28;89855;-34
2022/08/13 06:08:35;;;;;;;8.20;7.45;;;19.10;99.90;;;;;;5004308;28;89536;-30
2022/08/13 06:11:06;;;;;;;10.15;9.15;;;19.20;99.90;;;;;;5000513;28;88727;-31
2022/08/13 06:13:33;;;;;;;8.52;7.75;;;19.30;99.90;;;;;;4999503;28;90233;-34
2022/08/13 06:16:00;;;;;;;8.57;7.88;;;19.40;99.90;;;;;;4999357;28;91804;-32
2022/08/13 06:18:35;;;;;;;12.30;8.93;;;19.50;99.90;;;;;;4999712;28;89188;-34
2022/08/13 06:21:04;;;;;;;11.27;7.95;;;19.50;99.90;;;;;;5000286;28;88296;-34
2022/08/13 06:23:34;;;;;;;8.38;7.45;;;19.50;99.90;;;;;;4998311;28;90023;-33
2022/08/13 06:26:01;;;;;;;9.32;8.38;;;19.50;99.90;;;;;;4999528;28;89957;-33
2022/08/13 06:28:29;;;;;;;8.65;7.93;;;19.60;99.90;;;;;;5006630;28;91539;-31
2022/08/13 06:31:00;;;;;;;12.57;9.07;;;19.60;99.90;;;;;;5005540;28;88021;-34
2022/08/13 06:33:30;;;;;;;9.93;8.45;;;19.50;99.90;;;;;;5002742;28;88865;-33
2022/08/13 06:36:02;;;;;;;10.48;8.07;;;19.50;99.90;;;;;;5007201;28;90163;-31
2022/08/13 06:38:31;;;;;;;10.02;8.93;;;19.50;99.90;;;;;;5007720;28;91226;-33
2022/08/13 06:41:00;;;;;;;10.35;9.45;;;19.50;99.90;;;;;;5009393;28;89075;-32
2022/08/13 06:43:30;;;;;;;10.65;7.80;;;19.60;99.90;;;;;;5002094;28;88774;-32
2022/08/13 06:45:59;;;;;;;13.60;10.32;;;19.60;99.90;;;;;;4998224;28;89882;-31
2022/08/13 06:48:27;;;;;;;11.30;10.20;;;19.70;99.90;;;;;;4997109;28;89977;-34
2022/08/13 06:50:53;;;;;;;10.03;9.03;;;19.80;99.90;;;;;;5000024;28;88250;-33
2022/08/13 06:53:19;;;;;;;8.38;7.57;;;20.00;99.90;;;;;;4998733;28;90206;-34
2022/08/13 06:55:48;;;;;;;9.52;8.63;;;20.20;99.90;;;;;;5000783;28;89977;-35
2022/08/13 06:58:14;;;;;;;10.00;9.10;;;20.40;99.90;;;;;;4999283;28;89777;-32
2022/08/13 07:00:41;;;;;;;8.18;7.45;;;20.50;99.90;;;;;;5000677;28;88663;-35
2022/08/13 07:03:07;;;;;;;8.02;7.30;;;20.70;99.90;;;;;;4998879;28;90254;-35
2022/08/13 07:05:35;;;;;;;12.82;6.15;;;20.90;99.90;;;;;;4999676;28;91103;-34
2022/08/13 07:08:05;;;;;;;7.07;6.47;;;21.10;99.90;;;;;;4998848;28;90321;-32
2022/08/13 07:10:33;;;;;;;8.73;7.15;;;21.30;99.90;;;;;;4997337;28;88182;-32
2022/08/13 07:13:00;;;;;;;;;;;21.60;99.90;;;;;;4998571;28;90355;-32
2022/08/13 07:15:26;;;;;;;7.97;7.28;;;21.80;99.90;;;;;;4999771;28;89610;-35
2022/08/13 07:17:55;;;;;;;7.82;6.93;;;21.90;99.90;;;;;;4999389;28;89188;-32
2022/08/13 07:20:21;;;;;;;7.07;6.15;;;22.10;99.90;;;;;;4998056;28;89004;-33
2022/08/13 07:22:47;;;;;;;7.82;6.63;;;22.30;99.90;;;;;;4997861;28;90258;-32
2022/08/13 07:25:13;;;;;;;7.22;6.63;;;22.60;99.90;;;;;;4998536;28;88664;-34
2022/08/13 07:27:41;;;;;;;7.00;6.30;;;22.80;99.90;;;;;;4998378;28;91501;-32
2022/08/13 07:30:07;;;;;;;8.77;7.45;;;23.00;99.90;;;;;;4998273;28;89658;-32
2022/08/13 07:32:37;;;;;;;8.18;6.82;;;23.20;99.90;;;;;;4998061;28;90264;-34
2022/08/13 07:35:04;;;;;;;7.03;5.32;;;23.30;99.90;;;;;;4999246;28;90837;-33
2022/08/13 07:37:29;;;;;;;7.10;4.57;;;23.50;99.90;;;;;;4998167;28;90769;-32
2022/08/13 07:39:59;;;;;;;9.07;4.20;;;23.70;99.90;;;;;;4998239;28;88497;-34
2022/08/13 07:42:27;;;;;;;10.02;4.30;;;24.00;99.90;;;;;;4997936;28;88869;-34
2022/08/13 07:44:53;;;;;;;6.68;5.45;;;24.30;99.90;;;;;;4998781;28;89506;-35
2022/08/13 07:47:21;;;;;;;5.53;4.43;;;24.40;99.90;;;;;;4998682;28;88730;-31
2022/08/13 07:49:48;;;;;;;4.32;3.92;;;24.60;99.90;;;;;;4998046;28;89180;-33
2022/08/13 07:52:14;;;;;;;10.15;4.25;;;24.90;99.90;;;;;;4998879;28;89328;-33
2022/08/13 07:54:44;;;;;;;14.05;5.40;;;25.00;99.90;;;;;;5001229;28;91644;-31
2022/08/13 07:57:10;;;;;;;4.25;3.72;;;25.20;99.90;;;;;;5001288;28;90584;-33
2022/08/13 07:59:36;;;;;;;8.60;4.53;;;25.40;99.90;;;;;;5001278;28;88423;-32
2022/08/13 08:02:06;;;;;;;3.92;3.58;;;25.60;99.90;;;;;;5001184;28;90171;-35
2022/08/13 08:04:35;;;;;;;3.78;3.47;;;25.80;99.80;;;;;;5000964;28;90359;-33
2022/08/13 08:07:01;;;;;;;4.57;3.97;;;26.00;94.90;;;;;;5001303;28;89615;-32
2022/08/13 08:09:31;;;;;;;3.63;3.42;;;26.10;90.70;;;;;;5001333;28;89489;-31
2022/08/13 08:14:49;;;;;;;9.25;3.80;;;26.20;90.00;;;;;;5001652;28;89552;-32
2022/08/13 08:17:14;;;;;;;3.70;3.50;;;26.40;87.90;;;;;;5002045;28;90035;-31
2022/08/13 08:19:41;;;;;;;4.60;4.05;;;26.50;86.90;;;;;;5000162;28;89252;-32
2022/08/13 08:22:11;;;;;;;3.00;2.67;;;26.60;83.10;;;;;;5000721;28;89808;-35
2022/08/13 08:24:37;;;;;;;3.97;3.70;;;26.70;76.50;;;;;;5001037;28;90062;-32
2022/08/13 08:27:05;;;;;;;3.57;3.27;;;26.80;78.00;;;;;;5001860;28;88622;-32
2022/08/13 08:29:32;;;;;;;;;;;27.00;80.40;;;;;;5001169;28;88919;-33
2022/08/13 08:32:07;;;;;;;7.55;3.70;;;27.20;79.30;;;;;;5001453;28;89765;-36
2022/08/13 08:34:35;;;;;;;2.97;2.78;;;27.40;71.20;;;;;;5000870;28;89355;-34
2022/08/13 08:37:02;;;;;;;3.88;3.05;;;27.60;70.80;;;;;;5000868;28;90522;-35
2022/08/13 08:44:48;;;;;;;2.92;2.80;;;28.10;62.20;;;;;;4999796;28;89740;-34
2022/08/13 08:47:14;;;;;;;2.90;2.78;;;28.40;60.80;;;;;;4999917;28;90492;-33
2022/08/13 08:49:42;;;;;;;2.90;2.67;;;28.50;60.50;;;;;;5000883;28;88379;-34
2022/08/13 08:52:08;;;;;;;4.20;3.25;;;28.60;59.20;;;;;;5000381;28;90080;-33
2022/08/13 08:54:34;;;;;;;4.45;3.20;;;28.70;58.40;;;;;;5000297;28;90278;-34
2022/08/13 08:57:01;;;;;;;3.47;3.28;;;28.80;58.10;;;;;;5001296;28;89863;-33
2022/08/13 08:59:32;;;;;;;5.93;3.17;;;29.00;58.50;;;;;;5000424;28;88214;-34
2022/08/13 09:01:59;;;;;;;2.85;2.58;;;29.20;57.30;;;;;;5000737;28;89526;-32
2022/08/13 09:04:28;;;;;;;3.63;2.80;;;29.30;56.10;;;;;;4998943;28;88766;-33
2022/08/13 09:06:57;;;;;;;3.22;3.00;;;29.40;55.70;;;;;;5000302;28;89260;-34
2022/08/13 09:09:23;;;;;;;3.10;2.58;;;29.50;55.70;;;;;;4999588;28;89392;-33
2022/08/13 09:11:55;;;;;;;3.17;2.75;;;29.70;55.20;;;;;;5000124;28;90295;-34
2022/08/13 09:14:27;;;;;;;5.13;3.50;;;29.80;54.90;;;;;;5000016;28;88445;-36
2022/08/13 09:17:00;;;;;;;2.88;2.53;;;29.90;52.60;;;;;;5000611;28;89673;-34
2022/08/13 09:19:27;;;;;;;3.00;2.80;;;30.00;52.50;;;;;;5000576;28;89220;-33
2022/08/13 09:21:53;;;;;;;3.00;2.73;;;30.00;53.10;;;;;;4999979;28;90142;-35
2022/08/13 09:24:24;;;;;;;7.20;2.67;;;30.20;52.30;;;;;;4999820;28;89613;-34
2022/08/13 09:26:51;;;;;;;3.33;2.90;;;30.20;52.80;;;;;;4999502;28;91904;-33
2022/08/13 09:29:18;;;;;;;;;;;30.30;51.40;;;;;;5001372;28;88413;-35
2022/08/13 09:31:47;;;;;;;3.08;2.88;;;30.40;49.40;;;;;;5001061;28;90322;-33
2022/08/13 09:34:12;;;;;;;4.47;3.05;;;30.40;49.00;;;;;;4998929;28;89904;-34
2022/08/13 09:36:40;;;;;;;3.33;2.70;;;30.40;49.50;;;;;;4999935;28;90451;-34
2022/08/13 09:39:06;;;;;;;2.83;2.70;;;30.40;49.50;;;;;;5000371;28;88111;-33
2022/08/13 09:41:48;;;;;;;3.10;2.90;;;30.40;49.50;;;;;;4999343;28;91510;-33
2022/08/13 09:44:16;;;;;;;3.00;2.60;;;30.60;49.10;;;;;;4999883;28;90060;-35
2022/08/13 09:46:42;;;;;;;3.85;3.15;;;30.80;49.30;;;;;;4999975;28;89812;-33
2022/08/13 09:49:11;;;;;;;2.75;2.55;;;30.80;48.40;;;;;;4991945;28;90008;-33
2022/08/13 09:51:37;;;;;;;3.38;3.08;;;31.00;47.60;;;;;;4993875;28;90361;-33
2022/08/13 09:54:05;;;;;;;2.40;2.28;;;30.90;46.50;;;;;;4999837;28;91068;-34
2022/08/13 09:56:32;;;;;;;13.45;2.75;;;30.80;47.00;;;;;;4999754;28;89477;-33
2022/08/13 09:58:59;;;;;;;3.35;2.97;;;30.70;46.80;;;;;;4998523;28;90590;-35
2022/08/13 10:01:24;;;;;;;2.47;2.37;;;30.70;46.70;;;;;;4999070;28;90161;-36
2022/08/13 10:03:50;;;;;;;4.35;2.85;;;30.60;47.30;;;;;;4999379;28;89687;-32
2022/08/13 10:06:18;;;;;;;2.78;2.58;;;30.60;46.60;;;;;;4999202;28;89311;-33
2022/08/13 10:08:47;;;;;;;;;;;30.50;47.10;;;;;;4999148;28;88642;-35
2022/08/13 10:11:14;;;;;;;2.97;2.78;;;30.60;47.00;;;;;;5000726;28;90279;-35
2022/08/13 10:13:40;;;;;;;2.30;2.20;;;30.80;47.20;;;;;;4999612;28;89599;-35
2022/08/13 10:16:05;;;;;;;4.75;2.63;;;30.90;46.50;;;;;;4998630;28;89521;-34
2022/08/13 10:18:31;;;;;;;2.40;2.30;;;30.90;46.10;;;;;;4999407;28;88169;-34
2022/08/13 10:20:57;;;;;;;3.17;2.97;;;30.90;45.70;;;;;;4999318;28;90482;-33
2022/08/13 10:23:23;;;;;;;2.50;2.30;;;31.00;45.00;;;;;;4997762;28;90486;-35
2022/08/13 10:25:52;;;;;;;4.28;2.67;;;31.00;45.70;;;;;;4999120;28;90863;-32
2022/08/13 10:28:28;;;;;;;2.50;2.30;;;30.90;46.30;;;;;;4999158;28;88668;-35
2022/08/13 10:30:54;;;;;;;2.30;2.20;;;31.10;46.60;;;;;;4998823;28;90454;-33
2022/08/13 10:33:21;;;;;;;2.70;2.50;;;31.20;46.30;;;;;;4998720;28;89754;-35
2022/08/13 10:35:52;;;;;;;2.80;2.30;;;31.20;45.90;;;;;;4998866;28;91186;-33
2022/08/13 10:38:19;;;;;;;4.35;2.60;;;31.30;45.50;;;;;;4998558;28;87475;-34
2022/08/13 10:40:44;;;;;;;2.72;2.60;;;31.20;45.30;;;;;;4998621;28;90394;-32
2022/08/13 10:43:10;;;;;;;4.90;3.80;;;31.20;45.40;;;;;;4984617;28;91014;-33
2022/08/13 10:45:37;;;;;;;2.97;2.78;;;31.20;46.10;;;;;;4999387;28;90428;-34
2022/08/13 10:48:11;;;;;;;4.25;2.45;;;31.10;46.80;;;;;;4998346;28;88855;-33
2022/08/13 10:50:37;;;;;;;3.30;3.10;;;31.20;46.60;;;;;;4998867;28;90698;-33
2022/08/13 10:53:04;;;;;;;2.92;2.72;;;31.30;45.70;;;;;;4997293;28;89459;-35
2022/08/13 10:55:30;;;;;;;2.70;2.47;;;31.20;45.40;;;;;;4998296;28;89374;-35
2022/08/13 10:57:55;;;;;;;3.88;3.13;;;31.10;45.20;;;;;;4999097;28;88476;-35
2022/08/13 11:00:21;;;;;;;3.22;3.03;;;30.90;44.20;;;;;;4997604;28;90634;-35
2022/08/13 11:02:49;;;;;;;3.10;2.88;;;30.80;44.60;;;;;;4998309;28;90288;-32
2022/08/13 11:05:16;;;;;;;3.30;2.65;;;30.70;44.20;;;;;;4998597;28;89574;-34
2022/08/13 11:07:45;;;;;;;2.53;2.42;;;30.70;45.90;;;;;;4999281;28;90038;-34
2022/08/13 11:10:11;;;;;;;3.00;2.72;;;30.60;45.70;;;;;;4997918;28;90221;-36
2022/08/13 11:12:37;;;;;;;3.72;2.95;;;30.70;46.00;;;;;;4996596;28;90793;-35
2022/08/13 11:15:09;;;;;;;3.30;3.03;;;30.80;45.80;;;;;;4998606;28;90235;-33
2022/08/13 11:17:35;;;;;;;2.72;2.53;;;30.70;45.20;;;;;;4998535;28;88235;-34
2022/08/13 11:20:04;;;;;;;4.05;3.00;;;30.70;45.00;;;;;;4998314;28;90941;-32
2022/08/13 11:22:30;;;;;;;2.40;2.30;;;30.70;45.60;;;;;;4997244;28;89797;-33
2022/08/13 11:24:56;;;;;;;2.78;2.58;;;30.70;46.40;;;;;;4998299;28;89725;-35
2022/08/13 11:27:22;;;;;;;6.40;2.83;;;30.70;44.80;;;;;;5000887;28;89812;-33
2022/08/13 11:29:48;;;;;;;2.53;2.33;;;30.70;43.80;;;;;;5001776;28;89671;-32
2022/08/13 11:32:13;;;;;;;2.38;2.28;;;30.60;44.60;;;;;;5001977;28;89953;-36
2022/08/13 11:34:39;;;;;;;3.00;2.80;;;30.50;45.20;;;;;;5001603;28;89048;-36
2022/08/13 11:37:04;;;;;;;2.80;2.60;;;30.60;46.50;;;;;;5001776;28;89982;-35
2022/08/13 11:39:30;;;;;;;2.92;2.72;;;30.60;46.70;;;;;;5001404;28;90421;-33
2022/08/13 11:41:56;;;;;;;2.67;2.50;;;30.70;45.30;;;;;;5001050;28;89548;-34
2022/08/13 11:44:21;;;;;;;2.90;2.65;;;30.60;45.40;;;;;;5001761;28;89859;-34
2022/08/13 11:46:47;;;;;;;3.00;2.33;;;30.70;43.60;;;;;;5001314;28;89041;-33
2022/08/13 11:49:12;;;;;;;2.60;2.40;;;30.50;44.70;;;;;;5001719;28;90180;-33
2022/08/13 11:51:38;;;;;;;3.72;2.75;;;30.30;45.90;;;;;;4998662;28;88181;-36
2022/08/13 11:54:04;;;;;;;2.80;2.60;;;30.50;45.00;;;;;;5002996;28;90147;-33
2022/08/13 11:56:30;;;;;;;2.45;2.35;;;30.50;45.40;;;;;;5002972;28;88517;-35
2022/08/13 11:58:55;;;;;;;2.95;2.70;;;30.50;46.00;;;;;;5001376;28;90546;-36
2022/08/13 12:01:22;;;;;;;3.80;2.75;;;30.50;45.10;;;;;;5002480;28;90507;-36
2022/08/13 12:03:48;;;;;;;10.60;2.95;;;30.60;45.40;;;;;;5001226;28;91518;-34
2022/08/13 12:06:14;;;;;;;2.92;2.72;;;30.60;44.80;;;;;;4999203;28;89868;-34
2022/08/13 12:08:40;;;;;;;3.53;3.33;;;30.60;44.70;;;;;;5000144;28;90592;-34
2022/08/13 12:11:06;;;;;;;3.60;2.90;;;30.70;45.90;;;;;;5000243;28;89659;-34
2022/08/13 12:13:31;;;;;;;2.63;2.50;;;30.90;45.80;;;;;;5000871;28;89500;-34
2022/08/13 12:15:57;;;;;;;3.63;3.33;;;30.80;44.70;;;;;;5001024;28;89488;-34
2022/08/13 12:18:23;;;;;;;3.28;2.97;;;30.70;44.20;;;;;;5000932;28;90278;-34
2022/08/13 12:20:48;;;;;;;3.50;3.30;;;30.70;44.90;;;;;;5000595;28;89941;-35
2022/08/13 12:23:14;;;;;;;3.80;3.08;;;30.60;45.50;;;;;;5022325;22;89652;-35
2022/08/13 12:25:40;;;;;;;3.38;3.17;;;30.70;46.10;;;;;;4981777;28;89549;-33
2022/08/13 12:28:25;;;;;;;3.88;3.30;;;30.60;46.10;;;;;;4981550;28;89761;-35
2022/08/13 12:30:53;;;;;;;3.38;3.03;;;30.60;45.40;;;;;;4979962;28;88762;-36
2022/08/13 12:33:19;;;;;;;4.32;3.50;;;30.60;45.40;;;;;;4980557;28;90024;-35
2022/08/13 12:35:45;;;;;;;4.80;3.42;;;30.40;45.90;;;;;;4981402;28;90362;-34
2022/08/13 12:38:14;;;;;;;3.08;2.88;;;30.40;46.40;;;;;;4980093;28;89868;-36
2022/08/13 12:40:42;;;;;;;3.60;3.30;;;30.50;46.30;;;;;;4980527;28;89204;-33
2022/08/13 12:43:08;;;;;;;3.72;3.45;;;30.40;46.00;;;;;;4981363;28;89253;-34
2022/08/13 12:45:36;;;;;;;4.93;2.90;;;30.30;44.90;;;;;;4979791;28;89917;-35
2022/08/13 12:48:14;;;;;;;3.47;3.28;;;30.40;45.60;;;;;;4980626;28;90249;-34
2022/08/13 12:50:42;;;;;;;4.72;3.40;;;30.50;45.40;;;;;;4979438;28;90483;-33
2022/08/13 12:53:08;;;;;;;3.40;3.20;;;30.50;45.50;;;;;;4980846;28;90348;-37
2022/08/13 12:55:35;;;;;;;3.40;3.10;;;30.60;45.20;;;;;;4980503;28;89388;-35
2022/08/13 12:58:18;;;;;;;5.40;3.17;;;30.70;45.30;;;;;;4980158;28;90401;-34
2022/08/13 13:00:46;;;;;;;3.65;3.35;;;30.80;45.20;;;;;;4980801;28;90948;-32
2022/08/13 13:03:12;;;;;;;3.38;3.08;;;30.90;45.00;;;;;;4980127;28;89945;-36
2022/08/13 13:05:44;;;;;;;3.85;3.35;;;30.90;45.60;;;;;;4980425;28;89195;-35
2022/08/13 13:08:20;;;;;;;2.90;2.67;;;31.00;45.30;;;;;;4980780;28;91128;-34